sensor_id;sensor_type;location;lat;lon;timestamp;temperature;humidity
61412;DHT22;47278;49.732;7.690;2023-11-19T00:01:41;9.60;99.90
61412;DHT22;47278;49.732;7.690;2023-11-19T00:04:08;9.60;99.90
61412;DHT22;47278;49.732;7.690;2023-11-19T00:06:33;9.60;99.90
61412;DHT22;47278;49.732;7.690;2023-11-19T00:08:59;9.60;99.90
61412;DHT22;47278;49.732;7.690;2023-11-19T00:11:26;9.60;99.90
61412;DHT22;47278;49.732;7.690;2023-11-19T00:13:51;9.60;99.90
61412;DHT22;47278;49.732;7.690;2023-11-19T00:16:17;9.70;99.90
61412;DHT22;47278;49.732;7.690;2023-11-19T00:18:44;9.70;99.90
61412;DHT22;47278;49.732;7.690;2023-11-19T00:21:09;9.70;99.90
61412;DHT22;47278;49.732;7.690;2023-11-19T00:23:36;9.70;99.90
61412;DHT22;47278;49.732;7.690;2023-11-19T00:26:02;9.70;99.90
61412;DHT22;47278;49.732;7.690;2023-11-19T00:28:28;9.70;99.90
61412;DHT22;47278;49.732;7.690;2023-11-19T00:30:54;9.70;99.90
61412;DHT22;47278;49.732;7.690;2023-11-19T00:33:19;9.60;99.90
61412;DHT22;47278;49.732;7.690;2023-11-19T00:35:45;9.60;99.90
61412;DHT22;47278;49.732;7.690;2023-11-19T00:38:11;9.60;99.90
61412;DHT22;47278;49.732;7.690;2023-11-19T00:40:37;9.60;99.90
61412;DHT22;47278;49.732;7.690;2023-11-19T00:43:02;9.60;99.90
61412;DHT22;47278;49.732;7.690;2023-11-19T00:45:28;9.70;99.90
61412;DHT22;47278;49.732;7.690;2023-11-19T00:47:54;9.70;99.90
61412;DHT22;47278;49.732;7.690;2023-11-19T00:50:22;9.70;99.90
61412;DHT22;47278;49.732;7.690;2023-11-19T00:52:48;9.70;99.90
61412;DHT22;47278;49.732;7.690;2023-11-19T00:55:14;9.70;99.90
61412;DHT22;47278;49.732;7.690;2023-11-19T00:57:40;9.80;99.90
61412;DHT22;47278;49.732;7.690;2023-11-19T01:00:05;9.80;99.90
61412;DHT22;47278;49.732;7.690;2023-11-19T01:02:43;9.80;99.90
61412;DHT22;47278;49.732;7.690;2023-11-19T01:05:10;9.80;99.90
61412;DHT22;47278;49.732;7.690;2023-11-19T01:07:39;9.80;99.90
61412;DHT22;47278;49.732;7.690;2023-11-19T01:10:05;9.90;99.90
61412;DHT22;47278;49.732;7.690;2023-11-19T01:12:31;9.90;99.90
61412;DHT22;47278;49.732;7.690;2023-11-19T01:14:58;9.90;99.90
61412;DHT22;47278;49.732;7.690;2023-11-19T01:17:23;9.90;99.90
61412;DHT22;47278;49.732;7.690;2023-11-19T01:19:49;10.00;99.90
61412;DHT22;47278;49.732;7.690;2023-11-19T01:22:16;10.00;99.90
61412;DHT22;47278;49.732;7.690;2023-11-19T01:24:41;10.00;99.90
61412;DHT22;47278;49.732;7.690;2023-11-19T01:27:07;10.00;99.90
61412;DHT22;47278;49.732;7.690;2023-11-19T01:29:34;10.00;99.90
61412;DHT22;47278;49.732;7.690;2023-11-19T01:31:59;9.90;99.90
61412;DHT22;47278;49.732;7.690;2023-11-19T01:34:26;9.90;99.90
61412;DHT22;47278;49.732;7.690;2023-11-19T01:36:51;9.90;99.90
61412;DHT22;47278;49.732;7.690;2023-11-19T01:39:17;9.90;99.90
61412;DHT22;47278;49.732;7.690;2023-11-19T01:41:45;9.90;99.90
61412;DHT22;47278;49.732;7.690;2023-11-19T01:44:12;9.90;99.90
61412;DHT22;47278;49.732;7.690;2023-11-19T01:46:41;9.90;99.90
61412;DHT22;47278;49.732;7.690;2023-11-19T01:49:08;9.80;99.90
61412;DHT22;47278;49.732;7.690;2023-11-19T01:51:34;9.80;99.90
61412;DHT22;47278;49.732;7.690;2023-11-19T01:54:00;9.90;99.90
61412;DHT22;47278;49.732;7.690;2023-11-19T01:56:27;9.90;99.90
61412;DHT22;47278;49.732;7.690;2023-11-19T01:58:54;10.00;99.90
61412;DHT22;47278;49.732;7.690;2023-11-19T02:01:21;10.00;99.90
61412;DHT22;47278;49.732;7.690;2023-11-19T02:03:47;10.10;99.90
61412;DHT22;47278;49.732;7.690;2023-11-19T02:06:12;10.10;99.90
61412;DHT22;47278;49.732;7.690;2023-11-19T02:08:38;10.10;99.90
61412;DHT22;47278;49.732;7.690;2023-11-19T02:11:06;10.10;99.90
61412;DHT22;47278;49.732;7.690;2023-11-19T02:13:34;10.00;99.90
61412;DHT22;47278;49.732;7.690;2023-11-19T02:16:03;10.10;99.90
61412;DHT22;47278;49.732;7.690;2023-11-19T02:18:29;10.20;99.90
61412;DHT22;47278;49.732;7.690;2023-11-19T02:20:56;10.20;99.90
61412;DHT22;47278;49.732;7.690;2023-11-19T02:23:23;10.20;99.90
61412;DHT22;47278;49.732;7.690;2023-11-19T02:28:21;10.20;99.90
61412;DHT22;47278;49.732;7.690;2023-11-19T02:30:47;10.20;99.90
61412;DHT22;47278;49.732;7.690;2023-11-19T02:33:14;10.20;99.90
61412;DHT22;47278;49.732;7.690;2023-11-19T02:35:40;10.20;99.90
61412;DHT22;47278;49.732;7.690;2023-11-19T02:38:06;10.20;99.90
61412;DHT22;47278;49.732;7.690;2023-11-19T02:40:32;10.30;99.90
61412;DHT22;47278;49.732;7.690;2023-11-19T02:42:58;10.30;99.90
61412;DHT22;47278;49.732;7.690;2023-11-19T02:45:24;10.30;99.90
61412;DHT22;47278;49.732;7.690;2023-11-19T02:47:50;10.40;99.90
61412;DHT22;47278;49.732;7.690;2023-11-19T02:50:17;10.40;99.90
61412;DHT22;47278;49.732;7.690;2023-11-19T02:52:43;10.40;99.90
61412;DHT22;47278;49.732;7.690;2023-11-19T02:55:09;10.40;99.90
61412;DHT22;47278;49.732;7.690;2023-11-19T02:57:36;10.40;99.90
61412;DHT22;47278;49.732;7.690;2023-11-19T03:00:02;10.40;99.90
61412;DHT22;47278;49.732;7.690;2023-11-19T03:02:38;10.40;99.90
61412;DHT22;47278;49.732;7.690;2023-11-19T03:05:10;10.40;99.90
61412;DHT22;47278;49.732;7.690;2023-11-19T03:07:36;10.40;99.90
61412;DHT22;47278;49.732;7.690;2023-11-19T03:10:02;10.50;99.90
61412;DHT22;47278;49.732;7.690;2023-11-19T03:12:27;10.50;99.90
61412;DHT22;47278;49.732;7.690;2023-11-19T03:14:54;10.50;99.90
61412;DHT22;47278;49.732;7.690;2023-11-19T03:17:20;10.60;99.90
61412;DHT22;47278;49.732;7.690;2023-11-19T03:19:46;10.60;99.90
61412;DHT22;47278;49.732;7.690;2023-11-19T03:22:13;10.60;99.90
61412;DHT22;47278;49.732;7.690;2023-11-19T03:24:40;10.60;99.90
61412;DHT22;47278;49.732;7.690;2023-11-19T03:27:05;10.60;99.90
61412;DHT22;47278;49.732;7.690;2023-11-19T03:29:31;10.50;99.90
61412;DHT22;47278;49.732;7.690;2023-11-19T03:31:58;10.60;99.90
61412;DHT22;47278;49.732;7.690;2023-11-19T03:34:24;10.60;99.90
61412;DHT22;47278;49.732;7.690;2023-11-19T03:36:49;10.60;99.90
61412;DHT22;47278;49.732;7.690;2023-11-19T03:39:16;10.70;99.90
61412;DHT22;47278;49.732;7.690;2023-11-19T03:41:41;10.70;99.90
61412;DHT22;47278;49.732;7.690;2023-11-19T03:44:12;10.70;99.90
61412;DHT22;47278;49.732;7.690;2023-11-19T03:46:38;10.70;99.90
61412;DHT22;47278;49.732;7.690;2023-11-19T03:49:03;10.70;99.90
61412;DHT22;47278;49.732;7.690;2023-11-19T03:51:31;10.70;99.90
61412;DHT22;47278;49.732;7.690;2023-11-19T03:53:59;10.70;99.90
61412;DHT22;47278;49.732;7.690;2023-11-19T03:56:26;10.70;99.90
61412;DHT22;47278;49.732;7.690;2023-11-19T03:58:52;10.70;99.90
61412;DHT22;47278;49.732;7.690;2023-11-19T04:01:18;10.70;99.90
61412;DHT22;47278;49.732;7.690;2023-11-19T04:03:44;10.70;99.90
61412;DHT22;47278;49.732;7.690;2023-11-19T04:06:10;10.70;99.90
61412;DHT22;47278;49.732;7.690;2023-11-19T04:08:35;10.70;99.90
61412;DHT22;47278;49.732;7.690;2023-11-19T04:11:03;10.80;99.90
61412;DHT22;47278;49.732;7.690;2023-11-19T04:13:30;10.80;99.90
61412;DHT22;47278;49.732;7.690;2023-11-19T04:15:56;10.80;99.90
61412;DHT22;47278;49.732;7.690;2023-11-19T04:18:22;10.90;99.90
61412;DHT22;47278;49.732;7.690;2023-11-19T04:20:48;10.90;99.90
61412;DHT22;47278;49.732;7.690;2023-11-19T04:23:15;10.90;99.90
61412;DHT22;47278;49.732;7.690;2023-11-19T04:25:40;10.90;99.90
61412;DHT22;47278;49.732;7.690;2023-11-19T04:28:06;10.90;99.90
61412;DHT22;47278;49.732;7.690;2023-11-19T04:30:32;10.90;99.90
61412;DHT22;47278;49.732;7.690;2023-11-19T04:32:58;11.00;99.90
61412;DHT22;47278;49.732;7.690;2023-11-19T04:35:24;11.00;99.90
61412;DHT22;47278;49.732;7.690;2023-11-19T04:37:51;11.00;99.90
61412;DHT22;47278;49.732;7.690;2023-11-19T04:40:17;11.00;99.90
61412;DHT22;47278;49.732;7.690;2023-11-19T04:42:44;11.00;99.90
61412;DHT22;47278;49.732;7.690;2023-11-19T04:45:10;11.00;99.90
61412;DHT22;47278;49.732;7.690;2023-11-19T04:47:36;11.00;99.90
61412;DHT22;47278;49.732;7.690;2023-11-19T04:50:02;10.90;99.90
61412;DHT22;47278;49.732;7.690;2023-11-19T04:52:29;10.90;99.90
61412;DHT22;47278;49.732;7.690;2023-11-19T04:54:54;10.90;99.90
61412;DHT22;47278;49.732;7.690;2023-11-19T04:57:20;10.90;99.90
61412;DHT22;47278;49.732;7.690;2023-11-19T04:59:46;10.90;99.90
61412;DHT22;47278;49.732;7.690;2023-11-19T05:02:12;10.90;99.90
61412;DHT22;47278;49.732;7.690;2023-11-19T05:04:42;10.90;99.90
61412;DHT22;47278;49.732;7.690;2023-11-19T05:07:08;10.90;99.90
61412;DHT22;47278;49.732;7.690;2023-11-19T05:09:33;10.90;99.90
61412;DHT22;47278;49.732;7.690;2023-11-19T05:11:58;11.00;99.90
61412;DHT22;47278;49.732;7.690;2023-11-19T05:14:24;11.00;99.90
61412;DHT22;47278;49.732;7.690;2023-11-19T05:16:50;11.00;99.90
61412;DHT22;47278;49.732;7.690;2023-11-19T05:19:16;11.10;99.90
61412;DHT22;47278;49.732;7.690;2023-11-19T05:21:42;11.10;99.90
61412;DHT22;47278;49.732;7.690;2023-11-19T05:24:08;11.10;99.90
61412;DHT22;47278;49.732;7.690;2023-11-19T05:26:33;11.00;99.90
61412;DHT22;47278;49.732;7.690;2023-11-19T05:29:00;11.50;99.90
61412;DHT22;47278;49.732;7.690;2023-11-19T05:31:26;11.50;99.90
61412;DHT22;47278;49.732;7.690;2023-11-19T05:33:52;11.60;99.90
61412;DHT22;47278;49.732;7.690;2023-11-19T05:36:18;11.60;99.90
61412;DHT22;47278;49.732;7.690;2023-11-19T05:38:44;11.60;99.90
61412;DHT22;47278;49.732;7.690;2023-11-19T05:41:10;11.60;99.90
61412;DHT22;47278;49.732;7.690;2023-11-19T05:43:36;11.60;99.90
61412;DHT22;47278;49.732;7.690;2023-11-19T05:46:03;11.60;99.90
61412;DHT22;47278;49.732;7.690;2023-11-19T05:48:30;11.70;99.90
61412;DHT22;47278;49.732;7.690;2023-11-19T05:50:56;11.70;99.90
61412;DHT22;47278;49.732;7.690;2023-11-19T05:53:22;11.70;99.90
61412;DHT22;47278;49.732;7.690;2023-11-19T05:55:48;11.60;99.90
61412;DHT22;47278;49.732;7.690;2023-11-19T05:58:22;11.60;99.90
61412;DHT22;47278;49.732;7.690;2023-11-19T06:00:48;11.70;99.90
61412;DHT22;47278;49.732;7.690;2023-11-19T06:03:16;11.70;99.90
61412;DHT22;47278;49.732;7.690;2023-11-19T06:05:44;11.70;99.90
61412;DHT22;47278;49.732;7.690;2023-11-19T06:08:10;11.80;99.90
61412;DHT22;47278;49.732;7.690;2023-11-19T06:10:38;11.90;99.90
61412;DHT22;47278;49.732;7.690;2023-11-19T06:13:04;12.00;99.90
61412;DHT22;47278;49.732;7.690;2023-11-19T06:15:30;12.00;99.90
61412;DHT22;47278;49.732;7.690;2023-11-19T06:17:58;11.90;99.90
61412;DHT22;47278;49.732;7.690;2023-11-19T06:20:26;11.90;99.90
61412;DHT22;47278;49.732;7.690;2023-11-19T06:22:54;12.00;99.90
61412;DHT22;47278;49.732;7.690;2023-11-19T06:25:20;12.20;99.90
61412;DHT22;47278;49.732;7.690;2023-11-19T06:27:46;12.20;99.90
61412;DHT22;47278;49.732;7.690;2023-11-19T06:30:12;12.20;99.90
61412;DHT22;47278;49.732;7.690;2023-11-19T06:32:38;12.10;99.90
61412;DHT22;47278;49.732;7.690;2023-11-19T06:35:04;12.10;99.90
61412;DHT22;47278;49.732;7.690;2023-11-19T06:37:30;12.00;99.90
61412;DHT22;47278;49.732;7.690;2023-11-19T06:39:56;12.00;99.90
61412;DHT22;47278;49.732;7.690;2023-11-19T06:42:22;12.00;99.90
61412;DHT22;47278;49.732;7.690;2023-11-19T06:44:48;12.00;99.90
61412;DHT22;47278;49.732;7.690;2023-11-19T06:47:14;11.90;99.90
61412;DHT22;47278;49.732;7.690;2023-11-19T06:49:43;11.70;99.90
61412;DHT22;47278;49.732;7.690;2023-11-19T06:52:08;11.70;99.90
61412;DHT22;47278;49.732;7.690;2023-11-19T06:54:34;11.80;99.90
61412;DHT22;47278;49.732;7.690;2023-11-19T06:57:00;11.80;99.90
61412;DHT22;47278;49.732;7.690;2023-11-19T06:59:26;11.80;99.90
61412;DHT22;47278;49.732;7.690;2023-11-19T07:01:52;12.10;99.90
61412;DHT22;47278;49.732;7.690;2023-11-19T07:04:18;12.00;99.90
61412;DHT22;47278;49.732;7.690;2023-11-19T07:06:44;12.00;99.90
61412;DHT22;47278;49.732;7.690;2023-11-19T07:09:10;12.00;99.90
61412;DHT22;47278;49.732;7.690;2023-11-19T07:11:37;12.00;99.90
61412;DHT22;47278;49.732;7.690;2023-11-19T07:14:04;11.90;99.90
61412;DHT22;47278;49.732;7.690;2023-11-19T07:16:30;11.60;99.90
61412;DHT22;47278;49.732;7.690;2023-11-19T07:18:56;11.70;99.90
61412;DHT22;47278;49.732;7.690;2023-11-19T07:21:22;11.80;99.90
61412;DHT22;47278;49.732;7.690;2023-11-19T07:23:48;11.90;99.90
61412;DHT22;47278;49.732;7.690;2023-11-19T07:26:15;11.90;99.90
61412;DHT22;47278;49.732;7.690;2023-11-19T07:28:41;12.00;99.90
61412;DHT22;47278;49.732;7.690;2023-11-19T07:31:06;12.00;99.90
61412;DHT22;47278;49.732;7.690;2023-11-19T07:33:33;12.10;99.90
61412;DHT22;47278;49.732;7.690;2023-11-19T07:35:59;12.10;99.90
61412;DHT22;47278;49.732;7.690;2023-11-19T07:38:24;12.20;99.90
61412;DHT22;47278;49.732;7.690;2023-11-19T07:40:50;12.30;99.90
61412;DHT22;47278;49.732;7.690;2023-11-19T07:43:16;12.40;99.90
61412;DHT22;47278;49.732;7.690;2023-11-19T07:45:42;12.40;99.90
61412;DHT22;47278;49.732;7.690;2023-11-19T07:48:11;12.40;99.90
61412;DHT22;47278;49.732;7.690;2023-11-19T07:50:39;12.40;99.90
61412;DHT22;47278;49.732;7.690;2023-11-19T07:53:06;12.30;99.90
61412;DHT22;47278;49.732;7.690;2023-11-19T07:55:33;12.30;99.90
61412;DHT22;47278;49.732;7.690;2023-11-19T07:57:58;12.30;99.90
61412;DHT22;47278;49.732;7.690;2023-11-19T08:00:24;12.30;99.90
61412;DHT22;47278;49.732;7.690;2023-11-19T08:02:50;12.20;99.90
61412;DHT22;47278;49.732;7.690;2023-11-19T08:05:16;12.20;99.90
61412;DHT22;47278;49.732;7.690;2023-11-19T08:07:42;12.20;99.90
61412;DHT22;47278;49.732;7.690;2023-11-19T08:10:07;12.20;99.90
61412;DHT22;47278;49.732;7.690;2023-11-19T08:12:35;12.30;99.90
61412;DHT22;47278;49.732;7.690;2023-11-19T08:15:03;12.30;99.90
61412;DHT22;47278;49.732;7.690;2023-11-19T08:17:30;12.40;99.90
61412;DHT22;47278;49.732;7.690;2023-11-19T08:19:56;12.40;99.90
61412;DHT22;47278;49.732;7.690;2023-11-19T08:22:22;12.60;99.90
61412;DHT22;47278;49.732;7.690;2023-11-19T08:24:48;12.70;99.90
61412;DHT22;47278;49.732;7.690;2023-11-19T08:27:14;12.80;99.90
61412;DHT22;47278;49.732;7.690;2023-11-19T08:29:40;12.90;99.90
61412;DHT22;47278;49.732;7.690;2023-11-19T08:32:06;13.00;99.90
61412;DHT22;47278;49.732;7.690;2023-11-19T08:34:32;13.10;99.90
61412;DHT22;47278;49.732;7.690;2023-11-19T08:36:59;12.80;99.90
61412;DHT22;47278;49.732;7.690;2023-11-19T08:39:24;12.60;99.90
61412;DHT22;47278;49.732;7.690;2023-11-19T08:41:50;12.60;99.90
61412;DHT22;47278;49.732;7.690;2023-11-19T08:44:16;12.80;99.90
61412;DHT22;47278;49.732;7.690;2023-11-19T08:46:50;12.80;99.90
61412;DHT22;47278;49.732;7.690;2023-11-19T08:49:16;12.80;99.90
61412;DHT22;47278;49.732;7.690;2023-11-19T08:51:42;12.90;99.90
61412;DHT22;47278;49.732;7.690;2023-11-19T08:54:08;13.10;99.90
61412;DHT22;47278;49.732;7.690;2023-11-19T08:56:34;13.10;99.90
61412;DHT22;47278;49.732;7.690;2023-11-19T08:59:01;13.10;99.90
61412;DHT22;47278;49.732;7.690;2023-11-19T09:01:26;13.10;99.90
61412;DHT22;47278;49.732;7.690;2023-11-19T09:03:52;13.10;99.90
61412;DHT22;47278;49.732;7.690;2023-11-19T09:06:18;13.00;99.90
61412;DHT22;47278;49.732;7.690;2023-11-19T09:08:44;13.10;99.90
61412;DHT22;47278;49.732;7.690;2023-11-19T09:11:10;13.10;99.90
61412;DHT22;47278;49.732;7.690;2023-11-19T09:13:37;13.10;99.90
61412;DHT22;47278;49.732;7.690;2023-11-19T09:16:02;13.40;99.90
61412;DHT22;47278;49.732;7.690;2023-11-19T09:18:29;13.40;99.90
61412;DHT22;47278;49.732;7.690;2023-11-19T09:20:55;13.60;99.90
61412;DHT22;47278;49.732;7.690;2023-11-19T09:23:22;13.60;99.90
61412;DHT22;47278;49.732;7.690;2023-11-19T09:25:49;13.70;99.90
61412;DHT22;47278;49.732;7.690;2023-11-19T09:28:16;13.60;99.90
61412;DHT22;47278;49.732;7.690;2023-11-19T09:30:42;13.50;99.90
61412;DHT22;47278;49.732;7.690;2023-11-19T09:33:08;13.40;99.90
61412;DHT22;47278;49.732;7.690;2023-11-19T09:35:34;13.40;99.90
61412;DHT22;47278;49.732;7.690;2023-11-19T09:37:59;13.50;99.90
61412;DHT22;47278;49.732;7.690;2023-11-19T09:40:26;13.60;99.90
61412;DHT22;47278;49.732;7.690;2023-11-19T09:42:53;13.60;99.90
61412;DHT22;47278;49.732;7.690;2023-11-19T09:45:21;13.60;99.90
61412;DHT22;47278;49.732;7.690;2023-11-19T09:47:46;13.70;99.90
61412;DHT22;47278;49.732;7.690;2023-11-19T09:50:16;13.70;99.90
61412;DHT22;47278;49.732;7.690;2023-11-19T09:52:42;13.70;99.90
61412;DHT22;47278;49.732;7.690;2023-11-19T09:55:08;13.70;99.90
61412;DHT22;47278;49.732;7.690;2023-11-19T09:57:34;13.60;99.90
61412;DHT22;47278;49.732;7.690;2023-11-19T10:00:02;13.80;99.90
61412;DHT22;47278;49.732;7.690;2023-11-19T10:02:30;13.70;99.90
61412;DHT22;47278;49.732;7.690;2023-11-19T10:04:56;13.80;99.90
61412;DHT22;47278;49.732;7.690;2023-11-19T10:07:23;13.90;99.90
61412;DHT22;47278;49.732;7.690;2023-11-19T10:09:50;14.10;99.90
61412;DHT22;47278;49.732;7.690;2023-11-19T10:12:16;14.20;99.90
61412;DHT22;47278;49.732;7.690;2023-11-19T10:14:42;14.20;99.90
61412;DHT22;47278;49.732;7.690;2023-11-19T10:17:08;14.20;99.90
61412;DHT22;47278;49.732;7.690;2023-11-19T10:19:34;14.20;99.90
61412;DHT22;47278;49.732;7.690;2023-11-19T10:22:04;14.50;99.90
61412;DHT22;47278;49.732;7.690;2023-11-19T10:24:33;14.90;99.90
61412;DHT22;47278;49.732;7.690;2023-11-19T10:27:04;15.10;99.90
61412;DHT22;47278;49.732;7.690;2023-11-19T10:29:36;15.20;99.90
61412;DHT22;47278;49.732;7.690;2023-11-19T10:32:02;15.40;99.90
61412;DHT22;47278;49.732;7.690;2023-11-19T10:34:28;15.50;99.90
61412;DHT22;47278;49.732;7.690;2023-11-19T10:36:55;15.50;99.90
61412;DHT22;47278;49.732;7.690;2023-11-19T10:39:22;15.60;99.90
61412;DHT22;47278;49.732;7.690;2023-11-19T10:41:49;15.60;99.90
61412;DHT22;47278;49.732;7.690;2023-11-19T10:44:34;15.60;99.90
61412;DHT22;47278;49.732;7.690;2023-11-19T10:47:01;15.60;99.90
61412;DHT22;47278;49.732;7.690;2023-11-19T10:49:28;15.40;99.90
61412;DHT22;47278;49.732;7.690;2023-11-19T10:51:54;15.50;99.90
61412;DHT22;47278;49.732;7.690;2023-11-19T10:54:22;15.50;99.90
61412;DHT22;47278;49.732;7.690;2023-11-19T10:56:59;15.50;99.90
61412;DHT22;47278;49.732;7.690;2023-11-19T10:59:29;15.60;99.90
61412;DHT22;47278;49.732;7.690;2023-11-19T11:01:56;15.80;99.90
61412;DHT22;47278;49.732;7.690;2023-11-19T11:04:23;15.80;99.90
61412;DHT22;47278;49.732;7.690;2023-11-19T11:06:51;15.80;99.90
61412;DHT22;47278;49.732;7.690;2023-11-19T11:09:16;15.80;99.90
61412;DHT22;47278;49.732;7.690;2023-11-19T11:11:45;15.30;99.90
61412;DHT22;47278;49.732;7.690;2023-11-19T11:14:12;15.40;99.90
61412;DHT22;47278;49.732;7.690;2023-11-19T11:16:42;15.30;99.90
61412;DHT22;47278;49.732;7.690;2023-11-19T11:19:09;15.20;99.90
61412;DHT22;47278;49.732;7.690;2023-11-19T11:21:36;15.20;99.90
61412;DHT22;47278;49.732;7.690;2023-11-19T11:26:44;15.10;99.90
61412;DHT22;47278;49.732;7.690;2023-11-19T11:31:56;15.40;99.90
61412;DHT22;47278;49.732;7.690;2023-11-19T11:37:08;15.00;99.90
61412;DHT22;47278;49.732;7.690;2023-11-19T11:39:36;15.20;99.90
61412;DHT22;47278;49.732;7.690;2023-11-19T11:47:25;15.60;99.90
61412;DHT22;47278;49.732;7.690;2023-11-19T11:49:50;15.60;99.90
61412;DHT22;47278;49.732;7.690;2023-11-19T11:52:18;15.60;99.90
61412;DHT22;47278;49.732;7.690;2023-11-19T11:54:45;15.70;99.90
61412;DHT22;47278;49.732;7.690;2023-11-19T11:57:13;15.60;99.90
61412;DHT22;47278;49.732;7.690;2023-11-19T11:59:43;15.70;99.90
61412;DHT22;47278;49.732;7.690;2023-11-19T12:02:14;15.70;99.90
61412;DHT22;47278;49.732;7.690;2023-11-19T12:04:40;15.60;99.90
61412;DHT22;47278;49.732;7.690;2023-11-19T12:07:12;15.60;99.90
61412;DHT22;47278;49.732;7.690;2023-11-19T12:09:41;15.60;99.90
61412;DHT22;47278;49.732;7.690;2023-11-19T12:12:19;15.80;99.90
61412;DHT22;47278;49.732;7.690;2023-11-19T12:20:02;15.20;99.90
61412;DHT22;47278;49.732;7.690;2023-11-19T12:22:28;15.10;99.90
61412;DHT22;47278;49.732;7.690;2023-11-19T12:24:54;16.60;99.90
61412;DHT22;47278;49.732;7.690;2023-11-19T12:27:21;15.10;99.90
61412;DHT22;47278;49.732;7.690;2023-11-19T12:29:48;15.30;99.90
61412;DHT22;47278;49.732;7.690;2023-11-19T12:32:14;15.80;99.90
61412;DHT22;47278;49.732;7.690;2023-11-19T12:34:40;15.60;99.90
61412;DHT22;47278;49.732;7.690;2023-11-19T12:37:07;15.70;99.90
61412;DHT22;47278;49.732;7.690;2023-11-19T12:39:35;15.90;99.90
61412;DHT22;47278;49.732;7.690;2023-11-19T12:42:01;16.00;99.90
61412;DHT22;47278;49.732;7.690;2023-11-19T12:44:26;16.20;99.90
61412;DHT22;47278;49.732;7.690;2023-11-19T12:46:59;16.50;99.90
61412;DHT22;47278;49.732;7.690;2023-11-19T12:49:26;16.50;99.90
61412;DHT22;47278;49.732;7.690;2023-11-19T12:51:52;16.60;99.90
61412;DHT22;47278;49.732;7.690;2023-11-19T12:54:18;16.70;99.90
61412;DHT22;47278;49.732;7.690;2023-11-19T12:56:51;16.40;99.90
61412;DHT22;47278;49.732;7.690;2023-11-19T12:59:18;16.40;99.90
61412;DHT22;47278;49.732;7.690;2023-11-19T13:04:23;16.10;99.90
61412;DHT22;47278;49.732;7.690;2023-11-19T13:06:49;16.00;99.90
61412;DHT22;47278;49.732;7.690;2023-11-19T13:09:23;15.40;99.90
61412;DHT22;47278;49.732;7.690;2023-11-19T13:11:50;15.20;99.90
61412;DHT22;47278;49.732;7.690;2023-11-19T13:14:17;15.10;99.90
61412;DHT22;47278;49.732;7.690;2023-11-19T13:16:42;14.90;99.90
61412;DHT22;47278;49.732;7.690;2023-11-19T13:19:08;14.80;99.90
61412;DHT22;47278;49.732;7.690;2023-11-19T13:21:36;14.70;99.90
61412;DHT22;47278;49.732;7.690;2023-11-19T13:24:03;14.60;99.90
61412;DHT22;47278;49.732;7.690;2023-11-19T13:26:28;14.70;99.90
61412;DHT22;47278;49.732;7.690;2023-11-19T13:28:54;14.60;99.90
61412;DHT22;47278;49.732;7.690;2023-11-19T13:31:20;14.50;99.90
61412;DHT22;47278;49.732;7.690;2023-11-19T13:33:45;14.60;99.90
61412;DHT22;47278;49.732;7.690;2023-11-19T13:36:12;14.50;99.90
61412;DHT22;47278;49.732;7.690;2023-11-19T13:38:38;14.50;99.90
61412;DHT22;47278;49.732;7.690;2023-11-19T13:41:06;14.40;99.90
61412;DHT22;47278;49.732;7.690;2023-11-19T13:43:32;14.30;99.90
61412;DHT22;47278;49.732;7.690;2023-11-19T13:45:58;14.20;99.90
61412;DHT22;47278;49.732;7.690;2023-11-19T13:48:24;14.10;99.90
61412;DHT22;47278;49.732;7.690;2023-11-19T13:50:50;14.10;99.90
61412;DHT22;47278;49.732;7.690;2023-11-19T13:53:15;14.10;99.90
61412;DHT22;47278;49.732;7.690;2023-11-19T13:55:42;13.90;99.90
61412;DHT22;47278;49.732;7.690;2023-11-19T13:58:08;14.00;99.90
61412;DHT22;47278;49.732;7.690;2023-11-19T14:00:34;14.00;99.90
61412;DHT22;47278;49.732;7.690;2023-11-19T14:03:00;14.00;99.90
61412;DHT22;47278;49.732;7.690;2023-11-19T14:05:26;14.00;99.90
61412;DHT22;47278;49.732;7.690;2023-11-19T14:07:52;14.00;99.90
61412;DHT22;47278;49.732;7.690;2023-11-19T14:10:19;14.00;99.90
61412;DHT22;47278;49.732;7.690;2023-11-19T14:12:44;14.10;99.90
61412;DHT22;47278;49.732;7.690;2023-11-19T14:15:10;14.00;99.90
61412;DHT22;47278;49.732;7.690;2023-11-19T14:17:38;14.00;99.90
61412;DHT22;47278;49.732;7.690;2023-11-19T14:20:05;14.10;99.90
61412;DHT22;47278;49.732;7.690;2023-11-19T14:22:44;14.80;99.90
61412;DHT22;47278;49.732;7.690;2023-11-19T14:25:10;14.50;99.90
61412;DHT22;47278;49.732;7.690;2023-11-19T14:27:37;14.20;99.90
61412;DHT22;47278;49.732;7.690;2023-11-19T14:30:06;14.10;99.90
61412;DHT22;47278;49.732;7.690;2023-11-19T14:32:33;14.00;99.90
61412;DHT22;47278;49.732;7.690;2023-11-19T14:34:59;13.90;99.90
61412;DHT22;47278;49.732;7.690;2023-11-19T14:37:26;13.80;99.90
61412;DHT22;47278;49.732;7.690;2023-11-19T14:39:52;14.00;99.90
61412;DHT22;47278;49.732;7.690;2023-11-19T14:42:18;13.90;99.90
61412;DHT22;47278;49.732;7.690;2023-11-19T14:44:44;13.90;99.90
61412;DHT22;47278;49.732;7.690;2023-11-19T14:47:10;13.90;99.90
61412;DHT22;47278;49.732;7.690;2023-11-19T14:49:36;13.90;99.90
61412;DHT22;47278;49.732;7.690;2023-11-19T14:52:03;13.80;99.90
61412;DHT22;47278;49.732;7.690;2023-11-19T14:54:29;13.90;99.90
61412;DHT22;47278;49.732;7.690;2023-11-19T14:56:57;13.80;99.90
61412;DHT22;47278;49.732;7.690;2023-11-19T14:59:24;13.90;99.90
61412;DHT22;47278;49.732;7.690;2023-11-19T15:01:50;13.90;99.90
61412;DHT22;47278;49.732;7.690;2023-11-19T15:04:16;13.80;99.90
61412;DHT22;47278;49.732;7.690;2023-11-19T15:06:43;13.80;99.90
61412;DHT22;47278;49.732;7.690;2023-11-19T15:09:08;13.90;99.90
61412;DHT22;47278;49.732;7.690;2023-11-19T15:11:35;13.80;99.90
61412;DHT22;47278;49.732;7.690;2023-11-19T15:14:00;13.60;99.90
61412;DHT22;47278;49.732;7.690;2023-11-19T15:16:26;13.70;99.90
61412;DHT22;47278;49.732;7.690;2023-11-19T15:19:01;13.60;99.90
61412;DHT22;47278;49.732;7.690;2023-11-19T15:21:30;13.60;99.90
61412;DHT22;47278;49.732;7.690;2023-11-19T15:23:55;13.50;99.90
61412;DHT22;47278;49.732;7.690;2023-11-19T15:26:23;13.40;99.90
61412;DHT22;47278;49.732;7.690;2023-11-19T15:28:48;13.40;99.90
61412;DHT22;47278;49.732;7.690;2023-11-19T15:31:14;13.30;99.90
61412;DHT22;47278;49.732;7.690;2023-11-19T15:33:41;13.20;99.90
61412;DHT22;47278;49.732;7.690;2023-11-19T15:36:07;13.20;99.90
61412;DHT22;47278;49.732;7.690;2023-11-19T15:38:36;13.20;99.90
61412;DHT22;47278;49.732;7.690;2023-11-19T15:41:01;13.10;99.90
61412;DHT22;47278;49.732;7.690;2023-11-19T15:43:29;13.00;99.90
61412;DHT22;47278;49.732;7.690;2023-11-19T15:45:55;12.90;99.90
61412;DHT22;47278;49.732;7.690;2023-11-19T15:48:20;13.00;99.90
61412;DHT22;47278;49.732;7.690;2023-11-19T15:50:46;13.00;99.90
61412;DHT22;47278;49.732;7.690;2023-11-19T15:53:12;12.90;99.90